Time;durP1;ratioP1;P1;durP2;ratioP2;P2;SDS_P1;SDS_P2;PMS_P1;PMS_P2;Temp;Humidity;BMP_temperature;BMP_pressure;BME280_temperature;BME280_humidity;BME280_pressure;Samples;Min_cycle;Max_cycle;Signal;HPM_P1;HPM_P2
2021/04/08 00:01:17;;;;;;;8.40;6.03;;;4.70;99.90;;;;;;4387023;32;20078;-59
2021/04/08 00:03:43;;;;;;;10.05;5.55;;;4.80;99.90;;;;;;4361567;32;20062;-59
2021/04/08 00:06:11;;;;;;;6.93;5.12;;;4.80;99.90;;;;;;4376642;32;20072;-59
2021/04/08 00:08:37;;;;;;;8.15;5.40;;;4.80;99.90;;;;;;4354936;32;20167;-58
2021/04/08 00:11:03;;;;;;;7.80;5.93;;;4.90;99.90;;;;;;4380460;32;20059;-60
2021/04/08 00:13:30;;;;;;;9.00;5.22;;;4.90;99.90;;;;;;4367899;32;20493;-59
2021/04/08 00:15:56;;;;;;;6.80;4.22;;;5.00;99.90;;;;;;4366532;32;20166;-58
2021/04/08 00:18:22;;;;;;;6.60;5.10;;;5.00;99.90;;;;;;4341540;32;20082;-58
2021/04/08 00:20:48;;;;;;;7.70;5.35;;;5.00;99.90;;;;;;4378862;32;20089;-59
2021/04/08 00:23:14;;;;;;;7.53;5.57;;;5.10;99.90;;;;;;4363997;32;20167;-58
2021/04/08 00:25:41;;;;;;;7.07;5.30;;;5.00;99.90;;;;;;4388046;32;20466;-59
2021/04/08 00:28:07;;;;;;;6.07;5.10;;;5.10;99.90;;;;;;4378450;32;20082;-59
2021/04/08 00:30:42;;;;;;;7.45;5.50;;;5.10;99.90;;;;;;4374087;32;20063;-59
2021/04/08 00:33:16;;;;;;;5.70;4.12;;;5.20;99.90;;;;;;4350248;32;20073;-58
2021/04/08 00:35:43;;;;;;;6.55;4.95;;;5.10;99.90;;;;;;4364354;32;20069;-59
2021/04/08 00:38:10;;;;;;;8.35;5.80;;;5.10;99.90;;;;;;4363864;32;20175;-59
2021/04/08 00:40:36;;;;;;;7.28;5.32;;;5.10;99.90;;;;;;4379646;32;20093;-58
2021/04/08 00:43:02;;;;;;;7.78;5.40;;;5.10;99.90;;;;;;4353680;32;20144;-58
2021/04/08 00:45:28;;;;;;;7.45;4.78;;;5.00;99.90;;;;;;4376562;32;20077;-60
2021/04/08 00:47:55;;;;;;;7.40;5.40;;;5.00;99.90;;;;;;4375879;32;20081;-60
2021/04/08 00:50:21;;;;;;;7.00;4.85;;;5.10;99.90;;;;;;4367641;32;20682;-58
2021/04/08 00:53:06;;;;;;;7.00;5.65;;;5.00;99.90;;;;;;4355176;32;20445;-58
2021/04/08 00:55:41;;;;;;;7.18;5.22;;;5.10;99.90;;;;;;4363125;32;20609;-59
2021/04/08 00:58:07;;;;;;;8.38;4.87;;;5.10;99.90;;;;;;4366166;32;20131;-59
2021/04/08 01:00:36;;;;;;;7.93;5.22;;;5.20;99.90;;;;;;4343959;32;20069;-59
2021/04/08 01:03:02;;;;;;;6.47;4.95;;;5.20;99.90;;;;;;4357988;32;20087;-60
2021/04/08 01:05:28;;;;;;;6.97;5.00;;;5.20;99.90;;;;;;4350831;32;20085;-58
2021/04/08 01:07:55;;;;;;;7.47;5.22;;;5.30;99.90;;;;;;4363131;32;20588;-59
2021/04/08 01:10:22;;;;;;;8.20;5.18;;;5.30;99.90;;;;;;4366456;32;20066;-58
2021/04/08 01:12:54;;;;;;;7.18;5.37;;;5.30;99.90;;;;;;4354438;32;20105;-57
2021/04/08 01:15:21;;;;;;;7.32;5.22;;;5.30;99.90;;;;;;4351218;32;20162;-58
2021/04/08 01:18:31;;;;;;;7.45;5.43;;;5.30;99.90;;;;;;4365761;32;20160;-59
2021/04/08 01:21:03;;;;;;;7.32;4.93;;;5.30;99.90;;;;;;4386452;32;20070;-58
2021/04/08 01:23:50;;;;;;;7.45;4.75;;;5.20;99.90;;;;;;4363653;32;20074;-57
2021/04/08 01:26:41;;;;;;;;;;;5.30;99.90;;;;;;4375770;32;20464;-58
2021/04/08 01:29:44;;;;;;;6.50;5.30;;;5.30;99.90;;;;;;4385053;32;19969;-58
2021/04/08 01:32:11;;;;;;;7.00;4.75;;;5.40;99.90;;;;;;4375377;32;20081;-60
2021/04/08 01:34:39;;;;;;;7.00;5.35;;;5.40;99.90;;;;;;4372945;32;20098;-57
2021/04/08 01:37:08;;;;;;;7.97;5.05;;;5.50;99.90;;;;;;4366158;32;20085;-58
2021/04/08 01:39:36;;;;;;;7.78;5.10;;;5.50;99.90;;;;;;4355217;32;20065;-59
2021/04/08 01:42:03;;;;;;;8.27;5.35;;;5.60;99.90;;;;;;4376396;32;20173;-59
2021/04/08 01:44:29;;;;;;;7.18;5.10;;;5.60;99.90;;;;;;4359006;32;20154;-59
2021/04/08 01:47:02;;;;;;;6.72;4.72;;;5.60;99.90;;;;;;4358155;32;20100;-58
2021/04/08 01:49:30;;;;;;;6.87;5.05;;;5.60;99.90;;;;;;4366203;32;20070;-58
2021/04/08 01:51:57;;;;;;;7.20;4.28;;;5.60;99.90;;;;;;4362201;32;20540;-59
2021/04/08 01:54:30;;;;;;;6.93;5.30;;;5.60;99.90;;;;;;4350576;32;20066;-57
2021/04/08 01:57:02;;;;;;;6.37;4.95;;;5.70;99.90;;;;;;4353192;32;20173;-60
2021/04/08 01:59:29;;;;;;;6.22;4.85;;;5.80;99.90;;;;;;4365617;32;20154;-59
2021/04/08 02:01:57;;;;;;;7.57;5.20;;;5.80;99.90;;;;;;4376060;32;20085;-58
2021/04/08 02:04:25;;;;;;;7.72;4.43;;;6.00;99.90;;;;;;4360964;32;20149;-57
2021/04/08 02:06:51;;;;;;;7.12;4.82;;;6.00;99.90;;;;;;4369632;32;20170;-58
2021/04/08 02:09:18;;;;;;;6.47;5.00;;;6.10;99.90;;;;;;4367954;32;20149;-60
2021/04/08 02:11:46;;;;;;;7.18;5.22;;;6.10;99.90;;;;;;4365179;32;20504;-60
2021/04/08 02:14:12;;;;;;;7.32;5.45;;;6.20;99.90;;;;;;4337866;32;20169;-59
2021/04/08 02:16:39;;;;;;;7.57;5.43;;;6.10;99.90;;;;;;4366599;32;20090;-58
2021/04/08 02:19:07;;;;;;;7.18;5.03;;;6.10;99.90;;;;;;4371219;32;20467;-58
2021/04/08 02:21:33;;;;;;;6.82;4.75;;;6.10;99.90;;;;;;4358843;32;20093;-59
2021/04/08 02:23:59;;;;;;;8.50;5.00;;;6.10;99.90;;;;;;4375643;32;20151;-60
2021/04/08 02:26:26;;;;;;;7.62;5.28;;;6.20;99.90;;;;;;4348305;32;20073;-58
2021/04/08 02:28:52;;;;;;;7.12;5.65;;;6.10;99.90;;;;;;4365133;32;20080;-59
2021/04/08 02:31:19;;;;;;;6.55;5.30;;;6.10;99.90;;;;;;4347436;32;20080;-58
2021/04/08 02:33:46;;;;;;;6.95;5.10;;;6.10;99.90;;;;;;4353276;32;20078;-58
2021/04/08 02:36:13;;;;;;;9.10;6.45;;;6.10;99.90;;;;;;4365039;32;20139;-57
2021/04/08 02:38:39;;;;;;;7.87;5.72;;;6.10;99.90;;;;;;4371828;32;20069;-58
2021/04/08 02:41:07;;;;;;;8.07;6.05;;;6.10;99.90;;;;;;4349721;32;20148;-59
2021/04/08 02:43:37;;;;;;;6.70;5.40;;;6.20;99.90;;;;;;4365792;32;20063;-58
2021/04/08 02:46:03;;;;;;;7.60;5.30;;;6.30;99.90;;;;;;4389092;32;20105;-59
2021/04/08 02:48:31;;;;;;;7.65;6.40;;;6.30;99.90;;;;;;4350414;32;20165;-60
2021/04/08 02:51:03;;;;;;;6.28;5.28;;;6.30;99.90;;;;;;4375534;32;20072;-60
2021/04/08 02:53:57;;;;;;;7.87;5.65;;;6.40;99.90;;;;;;4386245;32;20077;-59
2021/04/08 02:56:29;;;;;;;6.40;5.40;;;6.40;99.90;;;;;;4362752;32;20157;-58
2021/04/08 02:59:04;;;;;;;7.93;5.45;;;6.50;99.90;;;;;;4366212;32;20089;-59
2021/04/08 03:01:30;;;;;;;7.43;5.63;;;6.50;99.90;;;;;;4373869;32;20164;-58
2021/04/08 03:03:59;;;;;;;7.45;5.78;;;6.50;99.90;;;;;;4364635;32;20093;-58
2021/04/08 03:06:26;;;;;;;9.05;6.70;;;6.60;99.90;;;;;;4360750;32;20160;-59
2021/04/08 03:08:54;;;;;;;6.70;5.75;;;6.60;99.90;;;;;;4346425;32;20073;-58
2021/04/08 03:11:27;;;;;;;7.50;4.87;;;6.60;99.90;;;;;;4376854;32;20077;-59
2021/04/08 03:13:56;;;;;;;6.90;5.75;;;6.70;99.90;;;;;;4369713;32;20430;-59
2021/04/08 03:16:25;;;;;;;7.57;5.62;;;6.80;99.90;;;;;;4349109;32;20077;-60
2021/04/08 03:18:56;;;;;;;6.65;5.30;;;7.00;99.90;;;;;;4369027;32;20069;-58
2021/04/08 03:21:26;;;;;;;8.80;6.12;;;7.00;99.90;;;;;;4343302;32;20089;-58
2021/04/08 03:23:53;;;;;;;6.90;6.18;;;7.00;99.90;;;;;;4349911;32;20069;-60
2021/04/08 03:26:21;;;;;;;7.30;5.60;;;7.00;99.90;;;;;;4350678;32;20067;-58
2021/04/08 03:28:47;;;;;;;8.40;6.22;;;7.00;99.90;;;;;;4364304;32;20483;-60
2021/04/08 03:31:15;;;;;;;6.78;5.30;;;6.90;99.90;;;;;;4352696;32;20467;-58
2021/04/08 03:33:41;;;;;;;7.22;5.90;;;6.80;99.90;;;;;;4368235;32;20176;-58
2021/04/08 03:36:07;;;;;;;6.53;5.20;;;6.80;99.90;;;;;;4367951;32;20070;-59
2021/04/08 03:38:34;;;;;;;7.15;5.45;;;6.90;99.90;;;;;;4352811;32;20543;-58
2021/04/08 03:41:00;;;;;;;7.32;6.10;;;6.90;99.90;;;;;;4364638;32;20074;-58
2021/04/08 03:43:26;;;;;;;6.82;5.40;;;7.10;99.90;;;;;;4366304;32;20069;-58
2021/04/08 03:46:01;;;;;;;7.90;5.82;;;7.30;99.90;;;;;;4355002;32;20059;-57
2021/04/08 03:48:27;;;;;;;7.62;5.25;;;7.30;99.90;;;;;;4351827;32;20070;-58
2021/04/08 03:50:54;;;;;;;5.85;5.22;;;7.40;99.90;;;;;;4360088;32;20145;-59
2021/04/08 03:53:20;;;;;;;6.90;5.57;;;7.20;99.90;;;;;;4357237;32;20160;-58
2021/04/08 03:55:47;;;;;;;6.93;5.78;;;7.10;99.90;;;;;;4352058;32;20181;-59
2021/04/08 03:58:14;;;;;;;8.93;5.68;;;7.00;99.90;;;;;;4366951;32;20165;-59
2021/04/08 04:00:40;;;;;;;7.07;5.70;;;7.10;99.90;;;;;;4359045;32;20077;-59
2021/04/08 04:03:10;;;;;;;7.22;5.30;;;7.00;99.90;;;;;;4371396;32;20078;-59
2021/04/08 04:05:38;;;;;;;8.10;5.45;;;7.10;99.90;;;;;;4363689;32;20077;-59
2021/04/08 04:08:05;;;;;;;6.65;5.50;;;7.00;99.90;;;;;;4354821;32;20537;-59
2021/04/08 04:10:37;;;;;;;6.62;5.25;;;7.00;99.90;;;;;;4354827;32;20069;-59
2021/04/08 04:13:04;;;;;;;7.03;5.72;;;7.10;99.90;;;;;;4368545;32;20505;-58
2021/04/08 04:15:35;;;;;;;6.05;5.20;;;7.10;99.90;;;;;;4380196;32;20093;-58
2021/04/08 04:18:08;;;;;;;7.30;5.43;;;7.10;99.90;;;;;;4345129;32;20160;-58
2021/04/08 04:20:38;;;;;;;5.05;3.87;;;7.10;99.90;;;;;;4379057;32;20074;-57
2021/04/08 04:23:04;;;;;;;6.78;5.85;;;7.10;99.90;;;;;;4386707;32;20092;-60
2021/04/08 04:25:31;;;;;;;7.93;6.32;;;7.10;99.90;;;;;;4350178;32;20480;-58
2021/04/08 04:27:58;;;;;;;7.50;5.50;;;7.10;99.90;;;;;;4368971;32;20078;-58
2021/04/08 04:30:25;;;;;;;7.45;6.30;;;7.20;99.90;;;;;;4367698;32;20165;-57
2021/04/08 04:32:55;;;;;;;7.25;5.50;;;7.20;99.90;;;;;;4356298;32;20153;-58
2021/04/08 04:35:22;;;;;;;7.10;5.70;;;7.10;99.90;;;;;;4357024;32;20074;-59
2021/04/08 04:37:49;;;;;;;6.95;5.87;;;7.10;99.90;;;;;;4360250;32;20086;-59
2021/04/08 04:40:15;;;;;;;7.25;5.53;;;7.00;99.90;;;;;;4350713;32;20086;-58
2021/04/08 04:42:43;;;;;;;7.37;5.80;;;6.90;99.90;;;;;;4356125;32;20070;-59
2021/04/08 04:45:12;;;;;;;6.55;5.85;;;6.90;99.90;;;;;;4383622;32;20481;-59
2021/04/08 04:47:44;;;;;;;8.80;5.60;;;7.10;99.90;;;;;;4358666;32;20062;-59
2021/04/08 04:50:14;;;;;;;7.55;6.15;;;7.00;99.90;;;;;;4353346;32;20573;-59
2021/04/08 04:52:41;;;;;;;8.45;6.25;;;7.10;99.90;;;;;;4358458;32;20059;-59
2021/04/08 04:55:08;;;;;;;6.70;5.05;;;7.20;99.90;;;;;;4363848;32;20085;-58
2021/04/08 04:57:34;;;;;;;7.45;5.82;;;7.50;99.90;;;;;;4362916;32;20159;-59
2021/04/08 05:00:00;;;;;;;7.40;5.37;;;7.30;99.90;;;;;;4390039;32;20153;-59
2021/04/08 05:02:27;;;;;;;6.53;5.30;;;7.20;99.90;;;;;;4361364;32;20535;-59
2021/04/08 05:04:53;;;;;;;6.85;5.50;;;7.20;99.90;;;;;;4363636;32;20112;-60
2021/04/08 05:07:19;;;;;;;6.90;5.75;;;7.30;99.90;;;;;;4364228;32;20113;-58
2021/04/08 05:09:46;;;;;;;9.50;5.80;;;7.40;99.90;;;;;;4365571;32;20460;-59
2021/04/08 05:12:12;;;;;;;6.15;5.22;;;7.40;99.90;;;;;;4380088;32;20072;-59
2021/04/08 05:14:38;;;;;;;8.25;5.65;;;7.50;99.90;;;;;;4365485;32;20078;-59
2021/04/08 05:17:05;;;;;;;6.72;5.40;;;7.40;99.90;;;;;;4369980;32;20163;-58
2021/04/08 05:19:31;;;;;;;6.62;5.10;;;7.50;99.90;;;;;;4362108;32;20173;-58
2021/04/08 05:21:57;;;;;;;6.00;4.60;;;7.50;99.90;;;;;;4371408;32;20084;-58
2021/04/08 05:24:24;;;;;;;7.03;5.05;;;7.60;99.90;;;;;;4342249;32;20070;-59
2021/04/08 05:26:50;;;;;;;6.62;5.45;;;7.50;99.90;;;;;;4358535;32;20074;-59
2021/04/08 05:29:17;;;;;;;7.12;5.43;;;7.50;99.90;;;;;;4365274;32;20081;-59
2021/04/08 05:31:43;;;;;;;6.60;4.85;;;7.70;99.90;;;;;;4375267;32;20070;-58
2021/04/08 05:34:09;;;;;;;6.10;4.53;;;8.90;99.90;;;;;;4379528;32;20196;-59
2021/04/08 05:36:35;;;;;;;7.95;4.78;;;9.00;99.90;;;;;;4372921;32;20485;-58
2021/04/08 05:39:03;;;;;;;6.40;4.68;;;9.10;99.90;;;;;;4371733;32;20080;-59
2021/04/08 05:41:29;;;;;;;7.35;5.00;;;9.30;99.90;;;;;;4343517;32;20154;-59
2021/04/08 05:43:55;;;;;;;5.97;4.78;;;9.10;99.90;;;;;;4387327;32;20093;-58
2021/04/08 05:46:21;;;;;;;7.00;5.28;;;9.30;99.90;;;;;;4375067;32;20075;-59
2021/04/08 05:48:48;;;;;;;5.72;4.62;;;9.50;99.90;;;;;;4369763;32;20441;-59
2021/04/08 05:51:14;;;;;;;7.57;4.80;;;9.70;99.90;;;;;;4355886;32;20089;-58
2021/04/08 05:53:40;;;;;;;6.93;4.43;;;9.80;99.90;;;;;;4386583;32;20592;-59
2021/04/08 05:56:06;;;;;;;6.87;5.07;;;9.90;99.90;;;;;;4365276;32;20482;-59
2021/04/08 05:58:33;;;;;;;5.20;4.32;;;10.10;99.90;;;;;;4372341;32;20125;-57
2021/04/08 06:00:59;;;;;;;8.43;5.32;;;10.90;99.90;;;;;;4383907;32;20084;-58
2021/04/08 06:03:25;;;;;;;8.18;4.45;;;10.10;99.90;;;;;;4367076;32;20059;-58
2021/04/08 06:05:52;;;;;;;6.28;3.87;;;10.90;99.90;;;;;;4374688;32;20085;-59
2021/04/08 06:08:18;;;;;;;8.50;5.12;;;10.90;98.90;;;;;;4378410;32;20520;-58
2021/04/08 06:10:45;;;;;;;7.90;5.20;;;11.00;98.80;;;;;;4359519;32;20074;-59
2021/04/08 06:13:11;;;;;;;6.70;5.20;;;10.70;99.50;;;;;;4383628;32;20445;-59
2021/04/08 06:15:37;;;;;;;3.95;2.40;;;10.50;99.90;;;;;;4353010;32;20090;-57
2021/04/08 06:18:03;;;;;;;6.82;5.30;;;10.50;99.90;;;;;;4389551;32;20080;-58
2021/04/08 06:20:30;;;;;;;5.60;4.45;;;10.30;99.90;;;;;;4345385;32;20148;-59
2021/04/08 06:22:56;;;;;;;6.10;3.72;;;9.90;99.90;;;;;;4384859;32;20151;-58
2021/04/08 06:25:24;;;;;;;5.45;3.72;;;10.10;94.50;;;;;;4386710;32;20161;-58
2021/04/08 06:27:50;;;;;;;6.72;5.30;;;9.90;95.20;;;;;;4370339;32;20108;-59
2021/04/08 06:30:18;;;;;;;6.37;5.22;;;10.00;96.00;;;;;;4369314;32;20085;-59
2021/04/08 06:32:44;;;;;;;2.80;1.95;;;10.00;95.40;;;;;;4371294;32;20081;-58
2021/04/08 06:35:12;;;;;;;5.03;3.95;;;9.90;95.00;;;;;;4366885;32;20170;-59
2021/04/08 06:37:38;;;;;;;7.05;4.70;;;9.80;95.60;;;;;;4373855;32;20597;-59
2021/04/08 06:40:06;;;;;;;5.53;4.37;;;9.80;96.10;;;;;;4376820;32;20117;-58
2021/04/08 06:42:34;;;;;;;6.65;4.85;;;9.80;96.70;;;;;;4350545;32;20077;-58
2021/04/08 06:45:01;;;;;;;6.35;5.05;;;9.80;96.60;;;;;;4370025;32;20066;-57
2021/04/08 06:48:19;;;;;;;9.40;5.05;;;9.80;97.90;;;;;;4364646;32;20096;-57
2021/04/08 06:50:47;;;;;;;5.90;4.50;;;9.80;97.50;;;;;;4357149;32;20468;-57
2021/04/08 06:53:14;;;;;;;5.05;4.32;;;9.60;98.30;;;;;;4367478;32;20100;-59
2021/04/08 06:55:42;;;;;;;5.97;4.40;;;9.60;99.30;;;;;;4371815;32;20065;-59
2021/04/08 06:58:10;;;;;;;5.00;3.72;;;9.50;99.10;;;;;;4351966;32;20157;-59
2021/04/08 07:00:36;;;;;;;8.70;5.07;;;9.70;98.80;;;;;;4355556;32;20065;-60
2021/04/08 07:03:04;;;;;;;6.85;4.55;;;9.70;99.10;;;;;;4374201;32;20081;-59
2021/04/08 07:05:31;;;;;;;6.32;4.70;;;10.00;97.70;;;;;;4351179;32;20078;-59
2021/04/08 07:07:57;;;;;;;6.53;4.57;;;9.70;98.00;;;;;;4352664;32;20141;-59
2021/04/08 07:10:23;;;;;;;7.07;4.75;;;9.80;97.10;;;;;;4384068;32;20082;-57
2021/04/08 07:12:54;;;;;;;5.18;4.68;;;10.00;96.70;;;;;;4385309;32;20066;-59
2021/04/08 07:15:21;;;;;;;6.20;4.28;;;10.00;96.20;;;;;;4364892;32;20105;-58
2021/04/08 07:17:48;;;;;;;5.53;4.28;;;10.10;96.70;;;;;;4366328;32;20144;-57
2021/04/08 07:20:14;;;;;;;5.87;4.60;;;10.00;97.00;;;;;;4376379;32;20054;-58
2021/04/08 07:22:41;;;;;;;5.53;4.70;;;10.10;97.10;;;;;;4345760;32;20075;-57
2021/04/08 07:25:25;;;;;;;6.25;4.68;;;10.00;96.20;;;;;;4383025;32;20082;-57
2021/04/08 07:27:51;;;;;;;6.15;4.28;;;10.20;94.70;;;;;;4362513;32;20155;-57
2021/04/08 07:30:19;;;;;;;8.07;4.80;;;10.20;95.60;;;;;;4379755;32;20226;-58
2021/04/08 07:32:58;;;;;;;5.72;4.50;;;10.40;94.90;;;;;;4373367;32;20078;-58
2021/04/08 07:35:24;;;;;;;5.32;4.22;;;10.50;94.50;;;;;;4375144;32;20092;-58
2021/04/08 07:37:56;;;;;;;8.57;5.03;;;10.50;93.70;;;;;;4354718;32;20142;-58
2021/04/08 07:40:25;;;;;;;6.72;4.70;;;10.30;94.40;;;;;;4341677;32;20260;-59
2021/04/08 07:42:51;;;;;;;4.95;3.90;;;10.30;94.60;;;;;;4360012;32;20066;-59
2021/04/08 07:45:34;;;;;;;6.12;4.87;;;10.50;94.10;;;;;;4386629;32;20169;-58
2021/04/08 07:48:05;;;;;;;7.47;4.18;;;10.60;93.20;;;;;;4356232;32;20074;-57
2021/04/08 07:50:33;;;;;;;6.62;4.95;;;10.50;93.50;;;;;;4375248;32;20064;-58
2021/04/08 07:52:59;;;;;;;6.35;4.65;;;10.50;93.30;;;;;;4359858;32;20496;-57
2021/04/08 07:55:28;;;;;;;9.07;4.60;;;10.70;93.00;;;;;;4358153;32;20081;-58
2021/04/08 07:58:00;;;;;;;5.40;4.50;;;10.70;92.20;;;;;;4394136;32;20093;-57
2021/04/08 08:00:39;;;;;;;6.05;4.75;;;10.90;91.40;;;;;;4390438;32;20177;-60
2021/04/08 08:03:26;;;;;;;4.60;3.05;;;11.00;91.10;;;;;;4360501;32;20089;-58
2021/04/08 08:05:58;;;;;;;4.28;3.80;;;10.80;91.10;;;;;;4353248;32;20081;-57
2021/04/08 08:08:25;;;;;;;5.37;4.37;;;11.00;89.90;;;;;;4379411;32;20097;-57
2021/04/08 08:11:04;;;;;;;7.68;4.35;;;11.00;89.90;;;;;;4338324;32;20437;-58
2021/04/08 08:13:36;;;;;;;6.75;4.43;;;10.90;90.20;;;;;;4363725;32;20130;-57
2021/04/08 08:16:03;;;;;;;5.30;3.90;;;10.90;90.20;;;;;;4378403;32;20074;-57
2021/04/08 08:18:33;;;;;;;5.57;4.10;;;10.80;90.40;;;;;;4374377;32;20584;-57
2021/04/08 08:21:16;;;;;;;6.50;4.45;;;11.20;89.40;;;;;;4385422;32;20130;-58
2021/04/08 08:23:53;;;;;;;8.20;4.37;;;11.10;90.20;;;;;;4364425;32;20154;-58
2021/04/08 08:26:32;;;;;;;5.10;4.22;;;11.20;90.50;;;;;;4375353;32;20081;-57
2021/04/08 08:29:11;;;;;;;5.62;4.30;;;11.10;89.80;;;;;;4368017;32;20094;-57
2021/04/08 08:31:42;;;;;;;7.00;4.12;;;11.20;90.00;;;;;;4379640;32;20085;-57
2021/04/08 08:34:14;;;;;;;7.53;4.50;;;11.00;90.40;;;;;;4376238;32;20533;-57
2021/04/08 08:36:42;;;;;;;5.62;4.62;;;11.20;90.20;;;;;;4370465;32;20058;-58
2021/04/08 08:39:12;;;;;;;7.47;4.30;;;11.20;90.00;;;;;;4382080;32;20480;-57
2021/04/08 08:41:39;;;;;;;5.80;3.92;;;11.40;89.50;;;;;;4375117;32;20162;-57
2021/04/08 08:44:09;;;;;;;5.60;4.18;;;11.60;88.10;;;;;;4341373;32;20447;-57
2021/04/08 08:46:49;;;;;;;5.40;4.05;;;11.70;88.10;;;;;;4378709;32;20062;-57
2021/04/08 08:49:21;;;;;;;9.13;4.18;;;11.70;87.20;;;;;;4369278;32;20074;-58
2021/04/08 08:51:49;;;;;;;8.63;4.30;;;11.40;89.30;;;;;;4352252;32;20085;-58
2021/04/08 08:54:16;;;;;;;7.05;4.50;;;11.20;90.50;;;;;;4352760;32;20526;-58
2021/04/08 08:56:42;;;;;;;8.27;4.37;;;11.30;90.40;;;;;;4347446;32;20505;-58
2021/04/08 08:59:09;;;;;;;6.35;4.40;;;11.20;90.60;;;;;;4368179;32;20176;-57
2021/04/08 09:01:35;;;;;;;8.05;4.40;;;11.30;90.20;;;;;;4379364;32;20070;-58
2021/04/08 09:04:04;;;;;;;6.07;4.00;;;11.40;90.00;;;;;;4369449;32;20081;-58
2021/04/08 09:06:30;;;;;;;6.70;4.15;;;11.50;90.00;;;;;;4358579;32;20089;-58
2021/04/08 09:09:01;;;;;;;5.10;4.50;;;11.50;90.10;;;;;;4356316;32;20062;-59
2021/04/08 09:11:32;;;;;;;5.87;4.30;;;11.70;88.90;;;;;;4366184;32;20602;-58
2021/04/08 09:13:59;;;;;;;8.63;4.43;;;11.70;89.70;;;;;;4360627;32;20073;-59
2021/04/08 09:16:25;;;;;;;8.02;4.12;;;12.00;88.40;;;;;;4353399;32;20069;-59
2021/04/08 09:19:05;;;;;;;8.20;4.82;;;11.60;89.30;;;;;;4355206;32;20418;-59
2021/04/08 09:21:52;;;;;;;5.22;4.30;;;11.70;90.40;;;;;;4374868;32;20097;-59
2021/04/08 09:24:23;;;;;;;6.45;4.45;;;11.70;90.40;;;;;;4366167;32;20069;-62
2021/04/08 09:26:52;;;;;;;6.70;4.68;;;11.60;90.30;;;;;;4371951;32;20492;-57
2021/04/08 09:29:37;;;;;;;5.97;4.32;;;11.70;91.10;;;;;;4368476;32;20073;-58
2021/04/08 09:32:23;;;;;;;7.60;4.05;;;11.80;90.30;;;;;;4379992;32;20147;-59
2021/04/08 09:35:05;;;;;;;7.12;4.55;;;12.20;89.40;;;;;;4374192;32;20484;-60
2021/04/08 09:37:47;;;;;;;8.23;3.90;;;11.90;89.90;;;;;;4391012;32;20475;-60
2021/04/08 09:40:34;;;;;;;7.53;4.55;;;11.80;91.50;;;;;;4386394;32;20058;-59
2021/04/08 09:43:18;;;;;;;8.98;4.40;;;12.00;91.00;;;;;;4387786;32;20073;-58
2021/04/08 09:45:57;;;;;;;6.15;4.32;;;12.10;90.80;;;;;;4374639;32;20089;-59
2021/04/08 09:48:27;;;;;;;6.87;4.50;;;12.30;90.70;;;;;;4380111;32;20077;-56
2021/04/08 09:51:02;;;;;;;6.15;4.37;;;12.30;90.90;;;;;;4360754;32;20113;-60
2021/04/08 09:53:50;;;;;;;7.60;4.45;;;12.30;90.40;;;;;;4359530;32;20194;-58
2021/04/08 09:56:16;;;;;;;5.30;4.40;;;12.20;91.80;;;;;;4385172;32;20073;-57
2021/04/08 09:58:43;;;;;;;6.53;4.03;;;12.20;92.00;;;;;;4357910;32;20114;-58
2021/04/08 10:01:10;;;;;;;6.72;4.93;;;12.50;90.90;;;;;;4360051;32;20065;-58
2021/04/08 10:03:38;;;;;;;6.50;5.10;;;12.20;92.80;;;;;;4372818;32;20529;-59
2021/04/08 10:06:17;;;;;;;9.65;4.50;;;12.50;91.60;;;;;;4359416;32;21454;-58
2021/04/08 10:08:43;;;;;;;6.85;4.45;;;12.40;91.20;;;;;;4394811;32;20082;-56
2021/04/08 10:11:33;;;;;;;5.30;4.20;;;12.60;91.30;;;;;;4368783;32;20193;-57
2021/04/08 10:14:00;;;;;;;6.87;4.18;;;12.50;91.70;;;;;;4359305;32;20149;-58
2021/04/08 10:16:26;;;;;;;5.78;4.85;;;12.90;90.60;;;;;;4359735;32;20116;-57
2021/04/08 10:19:00;;;;;;;8.10;4.57;;;13.00;89.60;;;;;;4383621;32;20172;-58
2021/04/08 10:21:26;;;;;;;5.65;4.37;;;13.20;87.60;;;;;;4370957;32;20069;-58
2021/04/08 10:23:54;;;;;;;5.75;4.45;;;13.20;89.50;;;;;;4369732;32;20556;-57
2021/04/08 10:26:28;;;;;;;6.78;4.22;;;13.10;90.00;;;;;;4357384;32;20472;-61
2021/04/08 10:28:59;;;;;;;5.50;4.45;;;13.20;89.80;;;;;;4374920;32;20081;-57
2021/04/08 10:31:37;;;;;;;8.38;4.43;;;13.20;88.50;;;;;;4376145;32;20085;-56
2021/04/08 10:34:10;;;;;;;6.70;4.65;;;13.00;91.10;;;;;;4386723;32;20061;-58
2021/04/08 10:36:45;;;;;;;6.87;4.22;;;13.20;90.20;;;;;;4374465;32;20125;-58
2021/04/08 10:39:22;;;;;;;5.97;4.30;;;13.10;90.30;;;;;;4367561;32;20159;-59
2021/04/08 10:42:00;;;;;;;5.28;4.37;;;13.10;90.30;;;;;;4366313;32;20069;-59
2021/04/08 10:44:33;;;;;;;10.27;4.30;;;13.20;90.30;;;;;;4369191;32;20088;-59
2021/04/08 10:47:14;;;;;;;6.32;4.07;;;13.50;87.00;;;;;;4382565;32;20077;-58
2021/04/08 10:49:44;;;;;;;5.57;4.18;;;13.60;86.80;;;;;;4368329;32;20182;-59
2021/04/08 10:52:18;;;;;;;6.72;4.50;;;13.50;88.20;;;;;;4382134;32;20634;-58
2021/04/08 10:54:48;;;;;;;8.35;4.60;;;13.20;88.90;;;;;;4371040;32;20128;-58
2021/04/08 10:57:15;;;;;;;8.85;4.32;;;13.40;89.90;;;;;;4352671;32;20077;-57
2021/04/08 10:59:42;;;;;;;7.18;4.22;;;13.50;89.20;;;;;;4374146;32;20094;-59
2021/04/08 11:02:35;;;;;;;6.80;5.32;;;13.30;89.70;;;;;;4337726;32;20085;-60
2021/04/08 11:05:06;;;;;;;8.77;5.50;;;13.40;89.70;;;;;;4373066;32;20081;-58
2021/04/08 11:07:38;;;;;;;5.97;5.00;;;13.30;89.10;;;;;;4370556;32;20085;-59
2021/04/08 11:10:25;;;;;;;6.72;4.85;;;13.60;87.90;;;;;;4365707;32;20105;-58
2021/04/08 11:12:52;;;;;;;9.98;5.05;;;13.80;87.50;;;;;;4367990;32;20065;-59
2021/04/08 11:15:22;;;;;;;7.25;4.90;;;13.90;86.30;;;;;;4397321;32;20073;-58
2021/04/08 11:17:54;;;;;;;13.13;5.40;;;13.70;88.10;;;;;;4378402;32;20085;-58
2021/04/08 11:20:32;;;;;;;7.62;4.55;;;13.50;88.80;;;;;;4366670;32;20077;-58
2021/04/08 11:22:58;;;;;;;8.07;4.65;;;13.80;88.70;;;;;;4357561;32;20073;-59
2021/04/08 11:25:28;;;;;;;7.30;4.53;;;13.70;89.60;;;;;;4359320;32;20078;-58
2021/04/08 11:28:00;;;;;;;8.60;5.00;;;14.00;87.50;;;;;;4341376;32;20148;-59
2021/04/08 11:30:38;;;;;;;7.78;4.70;;;14.30;85.20;;;;;;4354207;32;20102;-59
2021/04/08 11:33:24;;;;;;;10.43;5.25;;;13.70;89.90;;;;;;4355509;32;20066;-58
2021/04/08 11:35:50;;;;;;;5.30;4.47;;;13.80;90.10;;;;;;4386811;32;20138;-59
2021/04/08 11:38:24;;;;;;;6.65;4.15;;;13.90;89.10;;;;;;4340546;32;20108;-59
2021/04/08 11:41:08;;;;;;;7.78;4.80;;;14.30;87.70;;;;;;4346489;32;20182;-60
2021/04/08 11:43:41;;;;;;;9.88;5.32;;;13.70;90.40;;;;;;4360427;32;20174;-58
2021/04/08 11:46:35;;;;;;;6.95;4.43;;;13.70;90.40;;;;;;4378424;32;20077;-59
2021/04/08 11:49:03;;;;;;;6.18;4.40;;;13.80;90.40;;;;;;4353268;32;20129;-60
2021/04/08 11:51:31;;;;;;;5.62;4.28;;;14.10;88.30;;;;;;4385126;32;20074;-57
2021/04/08 11:54:13;;;;;;;7.10;4.10;;;13.70;91.20;;;;;;4376826;32;20065;-59
2021/04/08 11:56:43;;;;;;;7.70;4.25;;;13.70;90.80;;;;;;4354562;32;20097;-58
2021/04/08 11:59:23;;;;;;;7.47;4.30;;;13.90;90.50;;;;;;4371369;32;20054;-59
2021/04/08 12:01:54;;;;;;;6.35;4.32;;;13.90;90.40;;;;;;4366608;32;20078;-59
2021/04/08 12:04:25;;;;;;;6.82;4.40;;;13.70;91.00;;;;;;4365899;32;20065;-58
2021/04/08 12:07:05;;;;;;;7.87;4.20;;;13.60;91.40;;;;;;4375199;32;20070;-59
2021/04/08 12:09:36;;;;;;;6.80;4.18;;;13.60;91.40;;;;;;4387424;32;20093;-58
2021/04/08 12:12:03;;;;;;;7.12;4.50;;;13.60;92.10;;;;;;4385630;32;20069;-60
2021/04/08 12:14:29;;;;;;;6.25;4.32;;;13.50;92.40;;;;;;4361055;32;20080;-58
2021/04/08 12:17:09;;;;;;;7.93;4.68;;;13.70;91.80;;;;;;4357663;32;20066;-58
2021/04/08 12:19:39;;;;;;;9.10;4.22;;;13.80;91.10;;;;;;4385780;32;20068;-59
2021/04/08 12:22:10;;;;;;;7.45;4.37;;;13.80;91.70;;;;;;4365895;32;20058;-58
2021/04/08 12:24:37;;;;;;;6.53;4.55;;;14.00;90.80;;;;;;4372122;32;20489;-59
2021/04/08 12:27:15;;;;;;;6.90;4.20;;;14.00;90.20;;;;;;4370676;32;20065;-60
2021/04/08 12:29:42;;;;;;;7.53;4.03;;;14.00;90.50;;;;;;4375646;32;20062;-59
2021/04/08 12:32:08;;;;;;;4.90;3.95;;;14.10;90.40;;;;;;4378942;32;20139;-59
2021/04/08 12:34:34;;;;;;;7.18;4.53;;;13.90;91.20;;;;;;4386190;32;20083;-60
2021/04/08 12:37:00;;;;;;;8.00;4.20;;;13.90;91.70;;;;;;4391068;32;20592;-61
2021/04/08 12:39:27;;;;;;;5.60;4.15;;;13.90;91.90;;;;;;4390607;32;20077;-59
2021/04/08 12:41:54;;;;;;;5.85;4.32;;;13.90;91.90;;;;;;4354117;32;20086;-60
2021/04/08 12:44:20;;;;;;;8.35;4.70;;;13.80;92.20;;;;;;4365357;32;20078;-59
2021/04/08 12:46:46;;;;;;;7.47;4.10;;;13.80;91.90;;;;;;4373546;32;20113;-60
2021/04/08 12:49:12;;;;;;;5.85;4.22;;;13.80;92.00;;;;;;4387706;32;20157;-60
2021/04/08 12:51:39;;;;;;;5.45;3.80;;;13.80;92.50;;;;;;4391602;32;20152;-60
2021/04/08 12:54:05;;;;;;;7.35;4.22;;;13.80;92.40;;;;;;4378860;32;20073;-58
2021/04/08 12:56:32;;;;;;;6.45;4.35;;;13.90;92.10;;;;;;4377283;32;20492;-60
2021/04/08 12:59:00;;;;;;;7.53;3.70;;;13.80;92.20;;;;;;4352019;32;20508;-59
2021/04/08 13:01:27;;;;;;;5.57;4.10;;;13.80;92.20;;;;;;4380133;32;20148;-60
2021/04/08 13:03:53;;;;;;;6.82;4.07;;;13.90;92.10;;;;;;4363754;32;20081;-61
2021/04/08 13:06:19;;;;;;;6.62;4.47;;;13.90;92.00;;;;;;4379289;32;20105;-59
2021/04/08 13:08:46;;;;;;;6.05;4.40;;;13.90;92.30;;;;;;4374063;32;20097;-57